Gooch Mill, Missouri
Current Conditions -  °F | °C
As of 9:15 AM on Wednesday 26 Nov 2014 (Local Time) from KVER Reporting Station
Overcast Overcast  
Wind Chill: 28°   Ceiling: 4800
Heat Index: 34°   Visibility: 10mi
Dew Point: 34°   Wind: 6mph
Humidity: 100%   Direction: 170°S
Pressure: 29.95"   Gusts: NA
Location:  38.8814°N, 92.7602°W
Report Text: KVER 261515Z AUTO 17005KT 10SM SCT006 BKN048 OVC050 01/01 A2995 RMK AO2 T00090010
Loading
Personal Weather Stations






























Interactive Weather Map New forecast layout! Learn more

10-Day Weather Forecast

Advertisements
Track Severe Weather on mobile